sensor_id;sensor_type;location;lat;lon;timestamp;P1;durP1;ratioP1;P2;durP2;ratioP2
7503;SDS011;3793;48.136;11.536;2023-07-13T00:00:29;4.22;;;3.58;;
7503;SDS011;3793;48.136;11.536;2023-07-13T00:02:57;4.90;;;3.88;;
7503;SDS011;3793;48.136;11.536;2023-07-13T00:05:24;5.32;;;3.20;;
7503;SDS011;3793;48.136;11.536;2023-07-13T00:07:52;5.03;;;3.22;;
7503;SDS011;3793;48.136;11.536;2023-07-13T00:10:19;4.07;;;3.20;;
7503;SDS011;3793;48.136;11.536;2023-07-13T00:12:46;5.60;;;2.95;;
7503;SDS011;3793;48.136;11.536;2023-07-13T00:15:16;5.97;;;3.13;;
7503;SDS011;3793;48.136;11.536;2023-07-13T00:17:48;7.82;;;3.58;;
7503;SDS011;3793;48.136;11.536;2023-07-13T00:20:15;4.80;;;3.50;;
7503;SDS011;3793;48.136;11.536;2023-07-13T00:22:42;4.28;;;3.17;;
7503;SDS011;3793;48.136;11.536;2023-07-13T00:25:09;4.38;;;3.00;;
7503;SDS011;3793;48.136;11.536;2023-07-13T00:27:37;3.95;;;2.72;;
7503;SDS011;3793;48.136;11.536;2023-07-13T00:30:04;4.53;;;2.80;;
7503;SDS011;3793;48.136;11.536;2023-07-13T00:32:33;5.35;;;3.25;;
7503;SDS011;3793;48.136;11.536;2023-07-13T00:35:00;3.58;;;2.78;;
7503;SDS011;3793;48.136;11.536;2023-07-13T00:37:28;3.95;;;3.42;;
7503;SDS011;3793;48.136;11.536;2023-07-13T00:39:55;4.80;;;3.42;;
7503;SDS011;3793;48.136;11.536;2023-07-13T00:42:22;2.88;;;2.42;;
7503;SDS011;3793;48.136;11.536;2023-07-13T00:45:06;3.38;;;2.97;;
7503;SDS011;3793;48.136;11.536;2023-07-13T00:47:56;3.30;;;3.00;;
7503;SDS011;3793;48.136;11.536;2023-07-13T00:50:24;3.88;;;2.75;;
7503;SDS011;3793;48.136;11.536;2023-07-13T00:52:52;4.93;;;3.33;;
7503;SDS011;3793;48.136;11.536;2023-07-13T00:55:22;4.50;;;3.05;;
7503;SDS011;3793;48.136;11.536;2023-07-13T00:57:49;5.45;;;2.65;;
7503;SDS011;3793;48.136;11.536;2023-07-13T01:00:16;5.47;;;2.90;;
7503;SDS011;3793;48.136;11.536;2023-07-13T01:02:44;4.47;;;2.67;;
7503;SDS011;3793;48.136;11.536;2023-07-13T01:05:14;2.88;;;2.40;;
7503;SDS011;3793;48.136;11.536;2023-07-13T01:07:43;2.70;;;2.50;;
7503;SDS011;3793;48.136;11.536;2023-07-13T01:10:11;5.45;;;2.63;;
7503;SDS011;3793;48.136;11.536;2023-07-13T01:12:38;3.72;;;2.70;;
7503;SDS011;3793;48.136;11.536;2023-07-13T01:15:05;2.83;;;2.50;;
7503;SDS011;3793;48.136;11.536;2023-07-13T01:17:52;3.47;;;2.40;;
7503;SDS011;3793;48.136;11.536;2023-07-13T01:20:21;4.60;;;2.22;;
7503;SDS011;3793;48.136;11.536;2023-07-13T01:22:51;4.22;;;2.63;;
7503;SDS011;3793;48.136;11.536;2023-07-13T01:25:17;3.15;;;2.30;;
7503;SDS011;3793;48.136;11.536;2023-07-13T01:27:45;2.50;;;2.30;;
7503;SDS011;3793;48.136;11.536;2023-07-13T01:30:12;3.35;;;2.50;;
7503;SDS011;3793;48.136;11.536;2023-07-13T01:32:39;3.60;;;2.40;;
7503;SDS011;3793;48.136;11.536;2023-07-13T01:35:06;3.17;;;2.30;;
7503;SDS011;3793;48.136;11.536;2023-07-13T01:37:33;3.08;;;2.78;;
7503;SDS011;3793;48.136;11.536;2023-07-13T01:40:02;2.95;;;2.38;;
7503;SDS011;3793;48.136;11.536;2023-07-13T01:42:30;3.47;;;2.95;;
7503;SDS011;3793;48.136;11.536;2023-07-13T01:44:57;2.78;;;2.28;;
7503;SDS011;3793;48.136;11.536;2023-07-13T01:47:23;3.17;;;2.35;;
7503;SDS011;3793;48.136;11.536;2023-07-13T01:49:51;3.72;;;2.45;;
7503;SDS011;3793;48.136;11.536;2023-07-13T01:52:18;4.28;;;2.25;;
7503;SDS011;3793;48.136;11.536;2023-07-13T01:54:44;4.30;;;2.50;;
7503;SDS011;3793;48.136;11.536;2023-07-13T01:57:13;4.30;;;2.60;;
7503;SDS011;3793;48.136;11.536;2023-07-13T01:59:40;3.08;;;2.50;;
7503;SDS011;3793;48.136;11.536;2023-07-13T02:02:06;4.32;;;3.13;;
7503;SDS011;3793;48.136;11.536;2023-07-13T02:04:33;3.95;;;2.78;;
7503;SDS011;3793;48.136;11.536;2023-07-13T02:07:00;3.75;;;2.70;;
7503;SDS011;3793;48.136;11.536;2023-07-13T02:09:27;4.20;;;2.63;;
7503;SDS011;3793;48.136;11.536;2023-07-13T02:11:54;3.22;;;2.83;;
7503;SDS011;3793;48.136;11.536;2023-07-13T02:14:22;3.97;;;2.95;;
7503;SDS011;3793;48.136;11.536;2023-07-13T02:16:49;3.05;;;2.60;;
7503;SDS011;3793;48.136;11.536;2023-07-13T02:19:16;3.28;;;2.97;;
7503;SDS011;3793;48.136;11.536;2023-07-13T02:21:42;3.22;;;2.55;;
7503;SDS011;3793;48.136;11.536;2023-07-13T02:24:09;5.25;;;2.92;;
7503;SDS011;3793;48.136;11.536;2023-07-13T02:26:42;3.75;;;2.97;;
7503;SDS011;3793;48.136;11.536;2023-07-13T02:29:09;4.50;;;2.83;;
7503;SDS011;3793;48.136;11.536;2023-07-13T02:31:37;3.83;;;2.67;;
7503;SDS011;3793;48.136;11.536;2023-07-13T02:34:04;4.40;;;3.10;;
7503;SDS011;3793;48.136;11.536;2023-07-13T02:36:31;4.50;;;2.88;;
7503;SDS011;3793;48.136;11.536;2023-07-13T02:39:00;4.10;;;3.05;;
7503;SDS011;3793;48.136;11.536;2023-07-13T02:41:28;3.95;;;3.30;;
7503;SDS011;3793;48.136;11.536;2023-07-13T02:43:55;5.70;;;3.40;;
7503;SDS011;3793;48.136;11.536;2023-07-13T02:46:27;4.60;;;3.13;;
7503;SDS011;3793;48.136;11.536;2023-07-13T02:48:56;4.20;;;3.42;;
7503;SDS011;3793;48.136;11.536;2023-07-13T02:51:22;4.97;;;3.63;;
7503;SDS011;3793;48.136;11.536;2023-07-13T02:53:49;9.52;;;4.32;;
7503;SDS011;3793;48.136;11.536;2023-07-13T02:56:16;10.07;;;4.10;;
7503;SDS011;3793;48.136;11.536;2023-07-13T02:58:43;5.30;;;3.78;;
7503;SDS011;3793;48.136;11.536;2023-07-13T03:01:10;6.50;;;3.85;;
7503;SDS011;3793;48.136;11.536;2023-07-13T03:03:37;5.78;;;3.90;;
7503;SDS011;3793;48.136;11.536;2023-07-13T03:06:06;6.63;;;4.15;;
7503;SDS011;3793;48.136;11.536;2023-07-13T03:08:33;6.15;;;3.83;;
7503;SDS011;3793;48.136;11.536;2023-07-13T03:11:00;3.88;;;3.35;;
7503;SDS011;3793;48.136;11.536;2023-07-13T03:13:28;4.07;;;3.25;;
7503;SDS011;3793;48.136;11.536;2023-07-13T03:15:55;7.10;;;4.00;;
7503;SDS011;3793;48.136;11.536;2023-07-13T03:18:21;4.50;;;3.85;;
7503;SDS011;3793;48.136;11.536;2023-07-13T03:20:49;5.85;;;3.88;;
7503;SDS011;3793;48.136;11.536;2023-07-13T03:23:19;6.80;;;3.70;;
7503;SDS011;3793;48.136;11.536;2023-07-13T03:25:46;5.75;;;3.47;;
7503;SDS011;3793;48.136;11.536;2023-07-13T03:28:13;4.13;;;3.72;;
7503;SDS011;3793;48.136;11.536;2023-07-13T03:30:41;4.35;;;3.42;;
7503;SDS011;3793;48.136;11.536;2023-07-13T03:33:08;6.05;;;3.67;;
7503;SDS011;3793;48.136;11.536;2023-07-13T03:35:35;6.32;;;3.33;;
7503;SDS011;3793;48.136;11.536;2023-07-13T03:38:01;5.07;;;3.15;;
7503;SDS011;3793;48.136;11.536;2023-07-13T03:40:30;4.82;;;3.75;;
7503;SDS011;3793;48.136;11.536;2023-07-13T03:42:56;6.22;;;3.40;;
7503;SDS011;3793;48.136;11.536;2023-07-13T03:45:23;4.97;;;3.17;;
7503;SDS011;3793;48.136;11.536;2023-07-13T03:47:50;6.13;;;3.63;;
7503;SDS011;3793;48.136;11.536;2023-07-13T03:50:17;6.40;;;3.38;;
7503;SDS011;3793;48.136;11.536;2023-07-13T03:52:43;4.70;;;3.70;;
7503;SDS011;3793;48.136;11.536;2023-07-13T03:55:10;5.65;;;3.92;;
7503;SDS011;3793;48.136;11.536;2023-07-13T03:57:39;4.80;;;3.45;;
7503;SDS011;3793;48.136;11.536;2023-07-13T04:00:06;6.68;;;3.72;;
7503;SDS011;3793;48.136;11.536;2023-07-13T04:02:35;6.07;;;3.80;;
7503;SDS011;3793;48.136;11.536;2023-07-13T04:05:02;6.25;;;3.97;;
7503;SDS011;3793;48.136;11.536;2023-07-13T04:07:31;7.70;;;4.03;;
7503;SDS011;3793;48.136;11.536;2023-07-13T04:09:58;5.03;;;3.88;;
7503;SDS011;3793;48.136;11.536;2023-07-13T04:12:25;6.38;;;3.90;;
7503;SDS011;3793;48.136;11.536;2023-07-13T04:14:53;7.32;;;4.03;;
7503;SDS011;3793;48.136;11.536;2023-07-13T04:17:20;8.10;;;3.90;;
7503;SDS011;3793;48.136;11.536;2023-07-13T04:19:47;6.60;;;3.33;;
7503;SDS011;3793;48.136;11.536;2023-07-13T04:22:14;4.20;;;3.22;;
7503;SDS011;3793;48.136;11.536;2023-07-13T04:24:41;4.00;;;3.60;;
7503;SDS011;3793;48.136;11.536;2023-07-13T04:27:08;4.33;;;3.20;;
7503;SDS011;3793;48.136;11.536;2023-07-13T04:29:35;4.38;;;3.60;;
7503;SDS011;3793;48.136;11.536;2023-07-13T04:32:03;5.68;;;3.22;;
7503;SDS011;3793;48.136;11.536;2023-07-13T04:34:31;4.82;;;3.63;;
7503;SDS011;3793;48.136;11.536;2023-07-13T04:36:58;3.78;;;2.88;;
7503;SDS011;3793;48.136;11.536;2023-07-13T04:39:25;8.23;;;3.28;;
7503;SDS011;3793;48.136;11.536;2023-07-13T04:41:53;5.00;;;4.03;;
7503;SDS011;3793;48.136;11.536;2023-07-13T04:44:21;5.07;;;3.28;;
7503;SDS011;3793;48.136;11.536;2023-07-13T04:46:48;5.80;;;3.85;;
7503;SDS011;3793;48.136;11.536;2023-07-13T04:49:16;4.50;;;2.92;;
7503;SDS011;3793;48.136;11.536;2023-07-13T04:51:46;3.87;;;3.30;;
7503;SDS011;3793;48.136;11.536;2023-07-13T04:54:12;3.30;;;2.97;;
7503;SDS011;3793;48.136;11.536;2023-07-13T04:56:39;3.40;;;3.10;;
7503;SDS011;3793;48.136;11.536;2023-07-13T04:59:06;5.25;;;3.17;;
7503;SDS011;3793;48.136;11.536;2023-07-13T05:01:33;3.80;;;3.22;;
7503;SDS011;3793;48.136;11.536;2023-07-13T05:04:00;3.42;;;3.00;;
7503;SDS011;3793;48.136;11.536;2023-07-13T05:06:28;3.63;;;2.92;;
7503;SDS011;3793;48.136;11.536;2023-07-13T05:08:55;3.33;;;2.72;;
7503;SDS011;3793;48.136;11.536;2023-07-13T05:11:22;4.00;;;2.70;;
7503;SDS011;3793;48.136;11.536;2023-07-13T05:13:49;3.63;;;2.75;;
7503;SDS011;3793;48.136;11.536;2023-07-13T05:16:17;4.75;;;2.92;;
7503;SDS011;3793;48.136;11.536;2023-07-13T05:18:45;5.10;;;3.08;;
7503;SDS011;3793;48.136;11.536;2023-07-13T05:21:12;4.95;;;3.28;;
7503;SDS011;3793;48.136;11.536;2023-07-13T05:23:40;4.10;;;3.42;;
7503;SDS011;3793;48.136;11.536;2023-07-13T05:26:08;6.03;;;3.22;;
7503;SDS011;3793;48.136;11.536;2023-07-13T05:28:37;4.50;;;2.78;;
7503;SDS011;3793;48.136;11.536;2023-07-13T05:31:04;8.07;;;3.30;;
7503;SDS011;3793;48.136;11.536;2023-07-13T05:33:31;5.40;;;2.90;;
7503;SDS011;3793;48.136;11.536;2023-07-13T05:35:58;4.97;;;3.25;;
7503;SDS011;3793;48.136;11.536;2023-07-13T05:38:25;5.13;;;2.67;;
7503;SDS011;3793;48.136;11.536;2023-07-13T05:40:54;4.22;;;2.75;;
7503;SDS011;3793;48.136;11.536;2023-07-13T05:43:22;2.85;;;2.53;;
7503;SDS011;3793;48.136;11.536;2023-07-13T05:45:50;4.45;;;3.17;;
7503;SDS011;3793;48.136;11.536;2023-07-13T05:48:18;4.00;;;3.40;;
7503;SDS011;3793;48.136;11.536;2023-07-13T05:50:45;4.57;;;2.80;;
7503;SDS011;3793;48.136;11.536;2023-07-13T05:53:12;4.40;;;2.80;;
7503;SDS011;3793;48.136;11.536;2023-07-13T05:55:40;5.47;;;3.10;;
7503;SDS011;3793;48.136;11.536;2023-07-13T05:58:10;3.75;;;3.30;;
7503;SDS011;3793;48.136;11.536;2023-07-13T06:00:37;6.40;;;3.17;;
7503;SDS011;3793;48.136;11.536;2023-07-13T06:03:04;3.63;;;2.95;;
7503;SDS011;3793;48.136;11.536;2023-07-13T06:05:31;4.18;;;2.78;;
7503;SDS011;3793;48.136;11.536;2023-07-13T06:07:59;4.45;;;2.85;;
7503;SDS011;3793;48.136;11.536;2023-07-13T06:10:26;6.90;;;3.28;;
7503;SDS011;3793;48.136;11.536;2023-07-13T06:12:53;3.80;;;2.70;;
7503;SDS011;3793;48.136;11.536;2023-07-13T06:15:21;6.55;;;3.15;;
7503;SDS011;3793;48.136;11.536;2023-07-13T06:17:48;6.38;;;3.08;;
7503;SDS011;3793;48.136;11.536;2023-07-13T06:20:15;4.53;;;2.80;;
7503;SDS011;3793;48.136;11.536;2023-07-13T06:22:42;4.03;;;2.97;;
7503;SDS011;3793;48.136;11.536;2023-07-13T06:25:09;5.07;;;2.92;;
7503;SDS011;3793;48.136;11.536;2023-07-13T06:27:35;3.30;;;2.55;;
7503;SDS011;3793;48.136;11.536;2023-07-13T06:30:02;5.00;;;3.10;;
7503;SDS011;3793;48.136;11.536;2023-07-13T06:32:31;5.43;;;2.90;;
7503;SDS011;3793;48.136;11.536;2023-07-13T06:34:58;3.70;;;2.58;;
7503;SDS011;3793;48.136;11.536;2023-07-13T06:37:24;5.20;;;2.47;;
7503;SDS011;3793;48.136;11.536;2023-07-13T06:39:51;4.88;;;2.47;;
7503;SDS011;3793;48.136;11.536;2023-07-13T06:42:18;5.82;;;2.72;;
7503;SDS011;3793;48.136;11.536;2023-07-13T06:44:45;5.95;;;2.80;;
7503;SDS011;3793;48.136;11.536;2023-07-13T06:47:11;4.57;;;2.67;;
7503;SDS011;3793;48.136;11.536;2023-07-13T06:49:40;3.13;;;2.83;;
7503;SDS011;3793;48.136;11.536;2023-07-13T06:52:06;3.05;;;2.22;;
7503;SDS011;3793;48.136;11.536;2023-07-13T06:54:33;5.20;;;2.60;;
7503;SDS011;3793;48.136;11.536;2023-07-13T06:57:01;4.15;;;2.72;;
7503;SDS011;3793;48.136;11.536;2023-07-13T06:59:27;5.05;;;2.58;;
7503;SDS011;3793;48.136;11.536;2023-07-13T07:01:54;4.05;;;2.67;;
7503;SDS011;3793;48.136;11.536;2023-07-13T07:04:21;3.10;;;2.38;;
7503;SDS011;3793;48.136;11.536;2023-07-13T07:06:50;5.93;;;2.53;;
7503;SDS011;3793;48.136;11.536;2023-07-13T07:09:16;4.70;;;2.38;;
7503;SDS011;3793;48.136;11.536;2023-07-13T07:11:43;3.53;;;2.80;;
7503;SDS011;3793;48.136;11.536;2023-07-13T07:14:11;3.58;;;2.17;;
7503;SDS011;3793;48.136;11.536;2023-07-13T07:16:38;3.95;;;2.45;;
7503;SDS011;3793;48.136;11.536;2023-07-13T07:19:05;7.28;;;2.80;;
7503;SDS011;3793;48.136;11.536;2023-07-13T07:21:31;3.85;;;2.60;;
7503;SDS011;3793;48.136;11.536;2023-07-13T07:24:00;4.28;;;2.45;;
7503;SDS011;3793;48.136;11.536;2023-07-13T07:26:28;3.15;;;2.60;;
7503;SDS011;3793;48.136;11.536;2023-07-13T07:28:55;5.20;;;2.30;;
7503;SDS011;3793;48.136;11.536;2023-07-13T07:31:21;5.20;;;2.65;;
7503;SDS011;3793;48.136;11.536;2023-07-13T07:33:48;3.22;;;2.10;;
7503;SDS011;3793;48.136;11.536;2023-07-13T07:36:15;3.92;;;2.33;;
7503;SDS011;3793;48.136;11.536;2023-07-13T07:38:42;4.68;;;2.33;;
7503;SDS011;3793;48.136;11.536;2023-07-13T07:41:11;4.38;;;2.47;;
7503;SDS011;3793;48.136;11.536;2023-07-13T07:43:38;5.22;;;2.60;;
7503;SDS011;3793;48.136;11.536;2023-07-13T07:46:05;5.28;;;2.58;;
7503;SDS011;3793;48.136;11.536;2023-07-13T07:48:32;8.40;;;3.85;;
7503;SDS011;3793;48.136;11.536;2023-07-13T07:50:59;7.50;;;4.60;;
7503;SDS011;3793;48.136;11.536;2023-07-13T07:53:25;3.97;;;2.75;;
7503;SDS011;3793;48.136;11.536;2023-07-13T07:55:52;3.92;;;2.47;;
7503;SDS011;3793;48.136;11.536;2023-07-13T07:58:20;5.93;;;2.50;;
7503;SDS011;3793;48.136;11.536;2023-07-13T08:00:47;3.35;;;2.38;;
7503;SDS011;3793;48.136;11.536;2023-07-13T08:03:14;3.13;;;2.17;;
7503;SDS011;3793;48.136;11.536;2023-07-13T08:05:41;5.10;;;2.45;;
7503;SDS011;3793;48.136;11.536;2023-07-13T08:08:07;4.97;;;2.42;;
7503;SDS011;3793;48.136;11.536;2023-07-13T08:10:35;7.40;;;3.22;;
7503;SDS011;3793;48.136;11.536;2023-07-13T08:13:02;4.85;;;2.55;;
7503;SDS011;3793;48.136;11.536;2023-07-13T08:15:30;3.83;;;2.38;;
7503;SDS011;3793;48.136;11.536;2023-07-13T08:17:57;7.63;;;2.75;;
7503;SDS011;3793;48.136;11.536;2023-07-13T08:20:24;5.35;;;2.30;;
7503;SDS011;3793;48.136;11.536;2023-07-13T08:22:51;4.05;;;2.25;;
7503;SDS011;3793;48.136;11.536;2023-07-13T08:25:18;4.47;;;2.70;;
7503;SDS011;3793;48.136;11.536;2023-07-13T08:27:45;8.00;;;2.72;;
7503;SDS011;3793;48.136;11.536;2023-07-13T08:30:12;8.75;;;2.88;;
7503;SDS011;3793;48.136;11.536;2023-07-13T08:32:40;6.20;;;2.97;;
7503;SDS011;3793;48.136;11.536;2023-07-13T08:35:07;4.82;;;2.22;;
7503;SDS011;3793;48.136;11.536;2023-07-13T08:37:34;3.55;;;2.25;;
7503;SDS011;3793;48.136;11.536;2023-07-13T08:40:01;5.75;;;2.38;;
7503;SDS011;3793;48.136;11.536;2023-07-13T08:42:31;4.47;;;2.30;;
7503;SDS011;3793;48.136;11.536;2023-07-13T08:45:04;5.00;;;2.38;;
7503;SDS011;3793;48.136;11.536;2023-07-13T08:47:36;5.18;;;2.25;;
7503;SDS011;3793;48.136;11.536;2023-07-13T08:50:08;4.50;;;2.08;;
7503;SDS011;3793;48.136;11.536;2023-07-13T08:52:38;5.63;;;2.58;;
7503;SDS011;3793;48.136;11.536;2023-07-13T08:55:09;3.58;;;2.10;;
7503;SDS011;3793;48.136;11.536;2023-07-13T08:57:39;4.32;;;1.98;;
7503;SDS011;3793;48.136;11.536;2023-07-13T09:00:09;3.72;;;2.30;;
7503;SDS011;3793;48.136;11.536;2023-07-13T09:02:39;4.45;;;2.03;;
7503;SDS011;3793;48.136;11.536;2023-07-13T09:05:12;3.53;;;1.70;;
7503;SDS011;3793;48.136;11.536;2023-07-13T09:07:49;2.80;;;2.20;;
7503;SDS011;3793;48.136;11.536;2023-07-13T09:10:26;4.28;;;2.30;;
7503;SDS011;3793;48.136;11.536;2023-07-13T09:12:57;5.07;;;1.90;;
7503;SDS011;3793;48.136;11.536;2023-07-13T09:15:34;2.65;;;1.77;;
7503;SDS011;3793;48.136;11.536;2023-07-13T09:18:04;2.75;;;2.05;;
7503;SDS011;3793;48.136;11.536;2023-07-13T09:20:37;7.25;;;2.25;;
7503;SDS011;3793;48.136;11.536;2023-07-13T09:23:07;4.03;;;2.05;;
7503;SDS011;3793;48.136;11.536;2023-07-13T09:25:36;3.05;;;1.75;;
7503;SDS011;3793;48.136;11.536;2023-07-13T09:28:08;5.18;;;1.95;;
7503;SDS011;3793;48.136;11.536;2023-07-13T09:30:39;6.32;;;1.95;;
7503;SDS011;3793;48.136;11.536;2023-07-13T09:33:11;5.40;;;2.30;;
7503;SDS011;3793;48.136;11.536;2023-07-13T09:35:41;5.38;;;2.53;;
7503;SDS011;3793;48.136;11.536;2023-07-13T09:38:11;6.07;;;2.08;;
7503;SDS011;3793;48.136;11.536;2023-07-13T09:40:46;2.10;;;1.85;;
7503;SDS011;3793;48.136;11.536;2023-07-13T09:43:24;6.45;;;2.13;;
7503;SDS011;3793;48.136;11.536;2023-07-13T09:45:51;3.35;;;1.95;;
7503;SDS011;3793;48.136;11.536;2023-07-13T09:48:18;11.73;;;7.25;;
7503;SDS011;3793;48.136;11.536;2023-07-13T09:50:46;5.45;;;2.20;;
7503;SDS011;3793;48.136;11.536;2023-07-13T09:53:14;6.10;;;2.25;;
7503;SDS011;3793;48.136;11.536;2023-07-13T09:55:42;3.45;;;1.90;;
7503;SDS011;3793;48.136;11.536;2023-07-13T09:58:10;5.38;;;1.98;;
7503;SDS011;3793;48.136;11.536;2023-07-13T10:00:38;4.68;;;1.95;;
7503;SDS011;3793;48.136;11.536;2023-07-13T10:03:14;3.05;;;1.83;;
7503;SDS011;3793;48.136;11.536;2023-07-13T10:05:47;3.28;;;1.95;;
7503;SDS011;3793;48.136;11.536;2023-07-13T10:08:19;4.90;;;2.10;;
7503;SDS011;3793;48.136;11.536;2023-07-13T10:10:52;5.65;;;1.92;;
7503;SDS011;3793;48.136;11.536;2023-07-13T10:13:30;3.20;;;1.90;;
7503;SDS011;3793;48.136;11.536;2023-07-13T10:16:02;3.60;;;1.77;;
7503;SDS011;3793;48.136;11.536;2023-07-13T10:18:33;3.58;;;1.60;;
7503;SDS011;3793;48.136;11.536;2023-07-13T10:21:11;3.15;;;1.65;;
7503;SDS011;3793;48.136;11.536;2023-07-13T10:23:40;2.92;;;1.35;;
7503;SDS011;3793;48.136;11.536;2023-07-13T10:26:09;3.67;;;1.48;;
7503;SDS011;3793;48.136;11.536;2023-07-13T10:28:45;8.77;;;1.63;;
7503;SDS011;3793;48.136;11.536;2023-07-13T10:31:14;1.95;;;1.52;;
7503;SDS011;3793;48.136;11.536;2023-07-13T10:33:42;5.68;;;1.77;;
7503;SDS011;3793;48.136;11.536;2023-07-13T10:36:13;5.88;;;2.45;;
7503;SDS011;3793;48.136;11.536;2023-07-13T10:38:42;3.50;;;1.73;;
7503;SDS011;3793;48.136;11.536;2023-07-13T10:41:10;4.45;;;1.55;;
7503;SDS011;3793;48.136;11.536;2023-07-13T10:43:39;2.92;;;1.52;;
7503;SDS011;3793;48.136;11.536;2023-07-13T10:46:10;4.85;;;1.80;;
7503;SDS011;3793;48.136;11.536;2023-07-13T10:48:39;4.82;;;2.03;;
7503;SDS011;3793;48.136;11.536;2023-07-13T10:51:06;2.97;;;1.50;;
7503;SDS011;3793;48.136;11.536;2023-07-13T10:53:35;4.88;;;1.80;;
7503;SDS011;3793;48.136;11.536;2023-07-13T10:56:05;2.67;;;1.80;;
7503;SDS011;3793;48.136;11.536;2023-07-13T10:58:37;4.40;;;1.73;;
7503;SDS011;3793;48.136;11.536;2023-07-13T11:01:08;4.93;;;1.80;;
7503;SDS011;3793;48.136;11.536;2023-07-13T11:03:37;3.38;;;1.85;;
7503;SDS011;3793;48.136;11.536;2023-07-13T11:06:07;5.10;;;1.90;;
7503;SDS011;3793;48.136;11.536;2023-07-13T11:08:38;6.55;;;1.75;;
7503;SDS011;3793;48.136;11.536;2023-07-13T11:11:36;10.63;;;1.75;;
7503;SDS011;3793;48.136;11.536;2023-07-13T11:14:05;6.05;;;2.13;;
7503;SDS011;3793;48.136;11.536;2023-07-13T11:16:54;3.13;;;1.92;;
7503;SDS011;3793;48.136;11.536;2023-07-13T11:19:24;3.03;;;1.67;;
7503;SDS011;3793;48.136;11.536;2023-07-13T11:22:12;2.97;;;1.92;;
7503;SDS011;3793;48.136;11.536;2023-07-13T11:24:50;3.08;;;1.73;;
7503;SDS011;3793;48.136;11.536;2023-07-13T11:27:21;3.28;;;1.83;;
7503;SDS011;3793;48.136;11.536;2023-07-13T11:29:53;4.25;;;1.77;;
7503;SDS011;3793;48.136;11.536;2023-07-13T11:32:33;1.95;;;1.58;;
7503;SDS011;3793;48.136;11.536;2023-07-13T11:35:01;3.72;;;1.42;;
7503;SDS011;3793;48.136;11.536;2023-07-13T11:37:28;5.20;;;2.08;;
7503;SDS011;3793;48.136;11.536;2023-07-13T11:39:56;3.78;;;1.88;;
7503;SDS011;3793;48.136;11.536;2023-07-13T11:42:24;1.88;;;1.52;;
7503;SDS011;3793;48.136;11.536;2023-07-13T11:44:59;2.33;;;1.33;;
7503;SDS011;3793;48.136;11.536;2023-07-13T11:47:49;5.88;;;1.58;;
7503;SDS011;3793;48.136;11.536;2023-07-13T11:50:22;2.38;;;1.50;;
7503;SDS011;3793;48.136;11.536;2023-07-13T11:53:00;3.38;;;1.40;;
7503;SDS011;3793;48.136;11.536;2023-07-13T11:55:35;7.68;;;1.65;;
7503;SDS011;3793;48.136;11.536;2023-07-13T11:58:04;3.65;;;1.60;;
7503;SDS011;3793;48.136;11.536;2023-07-13T12:00:32;4.95;;;1.42;;
7503;SDS011;3793;48.136;11.536;2023-07-13T12:03:00;3.95;;;1.70;;
7503;SDS011;3793;48.136;11.536;2023-07-13T12:05:30;2.42;;;1.70;;
7503;SDS011;3793;48.136;11.536;2023-07-13T12:07:57;3.70;;;1.80;;
7503;SDS011;3793;48.136;11.536;2023-07-13T12:10:25;1.92;;;1.60;;
7503;SDS011;3793;48.136;11.536;2023-07-13T12:12:55;5.90;;;1.58;;
7503;SDS011;3793;48.136;11.536;2023-07-13T12:15:23;3.65;;;1.52;;
7503;SDS011;3793;48.136;11.536;2023-07-13T12:17:57;3.15;;;1.40;;
7503;SDS011;3793;48.136;11.536;2023-07-13T12:20:25;2.13;;;1.48;;
7503;SDS011;3793;48.136;11.536;2023-07-13T12:22:53;3.00;;;1.58;;
7503;SDS011;3793;48.136;11.536;2023-07-13T12:25:20;4.90;;;1.50;;
7503;SDS011;3793;48.136;11.536;2023-07-13T12:27:49;5.97;;;1.80;;
7503;SDS011;3793;48.136;11.536;2023-07-13T12:30:23;2.97;;;1.90;;
7503;SDS011;3793;48.136;11.536;2023-07-13T12:33:00;4.50;;;1.60;;
7503;SDS011;3793;48.136;11.536;2023-07-13T12:35:28;2.47;;;1.52;;
7503;SDS011;3793;48.136;11.536;2023-07-13T12:38:00;7.53;;;1.80;;
7503;SDS011;3793;48.136;11.536;2023-07-13T12:40:28;7.13;;;1.67;;
7503;SDS011;3793;48.136;11.536;2023-07-13T12:42:59;1.50;;;1.30;;
7503;SDS011;3793;48.136;11.536;2023-07-13T12:45:29;3.55;;;1.67;;
7503;SDS011;3793;48.136;11.536;2023-07-13T12:47:57;3.08;;;1.67;;
7503;SDS011;3793;48.136;11.536;2023-07-13T12:50:30;5.47;;;1.42;;
7503;SDS011;3793;48.136;11.536;2023-07-13T12:53:02;3.88;;;1.80;;
7503;SDS011;3793;48.136;11.536;2023-07-13T12:55:39;4.55;;;1.58;;
7503;SDS011;3793;48.136;11.536;2023-07-13T12:58:10;3.83;;;1.75;;
7503;SDS011;3793;48.136;11.536;2023-07-13T13:00:47;4.68;;;1.70;;
7503;SDS011;3793;48.136;11.536;2023-07-13T13:03:20;3.90;;;1.40;;
7503;SDS011;3793;48.136;11.536;2023-07-13T13:05:58;2.80;;;1.50;;
7503;SDS011;3793;48.136;11.536;2023-07-13T13:08:29;5.63;;;1.70;;
7503;SDS011;3793;48.136;11.536;2023-07-13T13:11:02;3.08;;;1.55;;
7503;SDS011;3793;48.136;11.536;2023-07-13T13:13:29;2.10;;;1.50;;
7503;SDS011;3793;48.136;11.536;2023-07-13T13:16:01;2.75;;;1.45;;
7503;SDS011;3793;48.136;11.536;2023-07-13T13:18:31;4.43;;;1.90;;
7503;SDS011;3793;48.136;11.536;2023-07-13T13:20:59;3.13;;;1.48;;
7503;SDS011;3793;48.136;11.536;2023-07-13T13:23:31;3.60;;;1.40;;
7503;SDS011;3793;48.136;11.536;2023-07-13T13:25:58;4.28;;;1.60;;
7503;SDS011;3793;48.136;11.536;2023-07-13T13:28:25;2.33;;;1.50;;
7503;SDS011;3793;48.136;11.536;2023-07-13T13:30:52;4.13;;;1.30;;
7503;SDS011;3793;48.136;11.536;2023-07-13T13:33:20;2.58;;;1.63;;
7503;SDS011;3793;48.136;11.536;2023-07-13T13:35:48;4.10;;;1.60;;
7503;SDS011;3793;48.136;11.536;2023-07-13T13:38:17;3.08;;;1.70;;
7503;SDS011;3793;48.136;11.536;2023-07-13T13:40:46;2.92;;;1.52;;
7503;SDS011;3793;48.136;11.536;2023-07-13T13:43:14;3.47;;;1.58;;
7503;SDS011;3793;48.136;11.536;2023-07-13T13:45:42;2.88;;;1.25;;
7503;SDS011;3793;48.136;11.536;2023-07-13T13:48:13;1.77;;;1.48;;
7503;SDS011;3793;48.136;11.536;2023-07-13T13:50:41;3.50;;;1.77;;
7503;SDS011;3793;48.136;11.536;2023-07-13T13:53:10;2.60;;;1.75;;
7503;SDS011;3793;48.136;11.536;2023-07-13T13:55:40;5.22;;;2.70;;
7503;SDS011;3793;48.136;11.536;2023-07-13T13:58:08;4.53;;;1.95;;
7503;SDS011;3793;48.136;11.536;2023-07-13T14:00:36;4.53;;;1.90;;
7503;SDS011;3793;48.136;11.536;2023-07-13T14:03:03;3.67;;;2.00;;
7503;SDS011;3793;48.136;11.536;2023-07-13T14:05:32;2.55;;;1.42;;
7503;SDS011;3793;48.136;11.536;2023-07-13T14:07:59;3.10;;;1.63;;
7503;SDS011;3793;48.136;11.536;2023-07-13T14:10:26;2.00;;;1.20;;
7503;SDS011;3793;48.136;11.536;2023-07-13T14:12:55;3.08;;;1.60;;
7503;SDS011;3793;48.136;11.536;2023-07-13T14:15:23;4.03;;;1.38;;
7503;SDS011;3793;48.136;11.536;2023-07-13T14:17:51;1.83;;;1.20;;
7503;SDS011;3793;48.136;11.536;2023-07-13T14:20:19;2.88;;;1.58;;
7503;SDS011;3793;48.136;11.536;2023-07-13T14:22:49;2.20;;;1.45;;
7503;SDS011;3793;48.136;11.536;2023-07-13T14:25:16;4.57;;;1.70;;
7503;SDS011;3793;48.136;11.536;2023-07-13T14:27:44;3.90;;;1.35;;
7503;SDS011;3793;48.136;11.536;2023-07-13T14:30:14;2.03;;;1.50;;
7503;SDS011;3793;48.136;11.536;2023-07-13T14:32:42;5.05;;;1.75;;
7503;SDS011;3793;48.136;11.536;2023-07-13T14:35:10;2.55;;;1.33;;
7503;SDS011;3793;48.136;11.536;2023-07-13T14:37:37;3.28;;;1.52;;
7503;SDS011;3793;48.136;11.536;2023-07-13T14:40:11;3.75;;;1.42;;
7503;SDS011;3793;48.136;11.536;2023-07-13T14:42:39;2.80;;;1.45;;
7503;SDS011;3793;48.136;11.536;2023-07-13T14:45:12;2.28;;;1.50;;
7503;SDS011;3793;48.136;11.536;2023-07-13T14:47:41;2.53;;;1.67;;
7503;SDS011;3793;48.136;11.536;2023-07-13T14:50:12;3.28;;;1.75;;
7503;SDS011;3793;48.136;11.536;2023-07-13T14:52:41;4.70;;;1.95;;
7503;SDS011;3793;48.136;11.536;2023-07-13T14:55:10;2.15;;;1.10;;
7503;SDS011;3793;48.136;11.536;2023-07-13T14:57:38;4.13;;;1.63;;
7503;SDS011;3793;48.136;11.536;2023-07-13T15:00:07;3.10;;;1.30;;
7503;SDS011;3793;48.136;11.536;2023-07-13T15:02:42;2.70;;;1.42;;
7503;SDS011;3793;48.136;11.536;2023-07-13T15:05:14;4.55;;;1.73;;
7503;SDS011;3793;48.136;11.536;2023-07-13T15:07:42;3.45;;;1.33;;
7503;SDS011;3793;48.136;11.536;2023-07-13T15:10:13;2.38;;;1.35;;